sensor_id;sensor_type;location;lat;lon;timestamp;P1;durP1;ratioP1;P2;durP2;ratioP2
1701;SDS011;848;48.354;10.064;2022-08-24T00:01:19;8.98;;;7.80;;
1701;SDS011;848;48.354;10.064;2022-08-24T00:03:46;8.07;;;7.13;;
1701;SDS011;848;48.354;10.064;2022-08-24T00:06:14;8.48;;;7.68;;
1701;SDS011;848;48.354;10.064;2022-08-24T00:08:44;9.45;;;8.55;;
1701;SDS011;848;48.354;10.064;2022-08-24T00:11:12;9.23;;;8.20;;
1701;SDS011;848;48.354;10.064;2022-08-24T00:13:40;8.43;;;7.63;;
1701;SDS011;848;48.354;10.064;2022-08-24T00:16:08;8.63;;;7.82;;
1701;SDS011;848;48.354;10.064;2022-08-24T00:18:37;12.38;;;9.98;;
1701;SDS011;848;48.354;10.064;2022-08-24T00:21:05;10.55;;;8.68;;
1701;SDS011;848;48.354;10.064;2022-08-24T00:23:33;10.07;;;9.07;;
1701;SDS011;848;48.354;10.064;2022-08-24T00:26:00;10.13;;;8.40;;
1701;SDS011;848;48.354;10.064;2022-08-24T00:28:27;8.43;;;7.72;;
1701;SDS011;848;48.354;10.064;2022-08-24T00:30:55;10.30;;;9.30;;
1701;SDS011;848;48.354;10.064;2022-08-24T00:33:22;8.48;;;7.75;;
1701;SDS011;848;48.354;10.064;2022-08-24T00:35:49;8.68;;;7.88;;
1701;SDS011;848;48.354;10.064;2022-08-24T00:38:16;9.45;;;8.55;;
1701;SDS011;848;48.354;10.064;2022-08-24T00:40:44;9.52;;;8.63;;
1701;SDS011;848;48.354;10.064;2022-08-24T00:43:13;12.43;;;9.57;;
1701;SDS011;848;48.354;10.064;2022-08-24T00:45:43;8.70;;;7.97;;
1701;SDS011;848;48.354;10.064;2022-08-24T00:48:15;10.45;;;9.35;;
1701;SDS011;848;48.354;10.064;2022-08-24T00:50:46;9.38;;;8.50;;
1701;SDS011;848;48.354;10.064;2022-08-24T00:53:21;9.05;;;8.20;;
1701;SDS011;848;48.354;10.064;2022-08-24T00:55:51;9.23;;;8.43;;
1701;SDS011;848;48.354;10.064;2022-08-24T00:58:23;9.98;;;9.10;;
1701;SDS011;848;48.354;10.064;2022-08-24T01:00:56;9.45;;;8.65;;
1701;SDS011;848;48.354;10.064;2022-08-24T01:03:28;13.15;;;8.95;;
1701;SDS011;848;48.354;10.064;2022-08-24T01:05:56;9.75;;;8.85;;
1701;SDS011;848;48.354;10.064;2022-08-24T01:08:24;10.93;;;8.68;;
1701;SDS011;848;48.354;10.064;2022-08-24T01:10:52;10.70;;;9.48;;
1701;SDS011;848;48.354;10.064;2022-08-24T01:13:23;12.15;;;8.95;;
1701;SDS011;848;48.354;10.064;2022-08-24T01:15:51;10.40;;;9.30;;
1701;SDS011;848;48.354;10.064;2022-08-24T01:18:23;9.38;;;8.48;;
1701;SDS011;848;48.354;10.064;2022-08-24T01:21:11;8.88;;;7.68;;
1701;SDS011;848;48.354;10.064;2022-08-24T01:23:44;8.80;;;8.05;;
1701;SDS011;848;48.354;10.064;2022-08-24T01:26:17;10.23;;;9.32;;
1701;SDS011;848;48.354;10.064;2022-08-24T01:28:47;8.32;;;7.63;;
1701;SDS011;848;48.354;10.064;2022-08-24T01:31:17;8.77;;;7.93;;
1701;SDS011;848;48.354;10.064;2022-08-24T01:33:47;11.35;;;9.20;;
1701;SDS011;848;48.354;10.064;2022-08-24T01:36:17;9.27;;;8.43;;
1701;SDS011;848;48.354;10.064;2022-08-24T01:38:48;8.63;;;7.78;;
1701;SDS011;848;48.354;10.064;2022-08-24T01:41:15;8.93;;;8.02;;
1701;SDS011;848;48.354;10.064;2022-08-24T01:43:42;8.90;;;8.10;;
1701;SDS011;848;48.354;10.064;2022-08-24T01:46:09;10.40;;;8.85;;
1701;SDS011;848;48.354;10.064;2022-08-24T01:48:36;10.23;;;9.13;;
1701;SDS011;848;48.354;10.064;2022-08-24T01:51:03;9.82;;;8.55;;
1701;SDS011;848;48.354;10.064;2022-08-24T01:53:30;8.40;;;7.60;;
1701;SDS011;848;48.354;10.064;2022-08-24T01:55:59;9.60;;;8.73;;
1701;SDS011;848;48.354;10.064;2022-08-24T01:58:26;9.18;;;8.38;;
1701;SDS011;848;48.354;10.064;2022-08-24T02:00:53;10.38;;;9.27;;
1701;SDS011;848;48.354;10.064;2022-08-24T02:03:20;7.88;;;7.13;;
1701;SDS011;848;48.354;10.064;2022-08-24T02:05:48;9.13;;;8.20;;
1701;SDS011;848;48.354;10.064;2022-08-24T02:08:16;10.40;;;9.40;;
1701;SDS011;848;48.354;10.064;2022-08-24T02:10:43;9.15;;;8.35;;
1701;SDS011;848;48.354;10.064;2022-08-24T02:13:11;9.50;;;8.70;;
1701;SDS011;848;48.354;10.064;2022-08-24T02:15:38;11.10;;;8.70;;
1701;SDS011;848;48.354;10.064;2022-08-24T02:18:06;8.80;;;8.00;;
1701;SDS011;848;48.354;10.064;2022-08-24T02:20:34;9.10;;;8.20;;
1701;SDS011;848;48.354;10.064;2022-08-24T02:23:02;11.02;;;9.90;;
1701;SDS011;848;48.354;10.064;2022-08-24T02:25:30;9.85;;;9.05;;
1701;SDS011;848;48.354;10.064;2022-08-24T02:27:57;9.75;;;8.95;;
1701;SDS011;848;48.354;10.064;2022-08-24T02:30:27;9.52;;;8.70;;
1701;SDS011;848;48.354;10.064;2022-08-24T02:32:55;8.85;;;8.05;;
1701;SDS011;848;48.354;10.064;2022-08-24T02:35:23;8.98;;;8.15;;
1701;SDS011;848;48.354;10.064;2022-08-24T02:37:50;10.50;;;9.55;;
1701;SDS011;848;48.354;10.064;2022-08-24T02:40:18;10.45;;;8.70;;
1701;SDS011;848;48.354;10.064;2022-08-24T02:42:45;9.45;;;8.45;;
1701;SDS011;848;48.354;10.064;2022-08-24T02:45:13;8.63;;;7.82;;
1701;SDS011;848;48.354;10.064;2022-08-24T02:47:41;9.07;;;8.32;;
1701;SDS011;848;48.354;10.064;2022-08-24T02:50:10;9.48;;;8.00;;
1701;SDS011;848;48.354;10.064;2022-08-24T02:52:39;11.43;;;9.57;;
1701;SDS011;848;48.354;10.064;2022-08-24T02:55:08;9.65;;;8.63;;
1701;SDS011;848;48.354;10.064;2022-08-24T02:57:36;9.95;;;8.93;;
1701;SDS011;848;48.354;10.064;2022-08-24T03:00:04;9.73;;;8.82;;
1701;SDS011;848;48.354;10.064;2022-08-24T03:02:35;10.10;;;9.10;;
1701;SDS011;848;48.354;10.064;2022-08-24T03:05:04;9.65;;;8.80;;
1701;SDS011;848;48.354;10.064;2022-08-24T03:07:33;9.45;;;8.50;;
1701;SDS011;848;48.354;10.064;2022-08-24T03:09:59;9.30;;;8.48;;
1701;SDS011;848;48.354;10.064;2022-08-24T03:12:27;9.45;;;8.55;;
1701;SDS011;848;48.354;10.064;2022-08-24T03:14:54;8.57;;;7.78;;
1701;SDS011;848;48.354;10.064;2022-08-24T03:17:21;8.43;;;7.65;;
1701;SDS011;848;48.354;10.064;2022-08-24T03:19:48;9.27;;;8.15;;
1701;SDS011;848;48.354;10.064;2022-08-24T03:22:17;10.35;;;8.80;;
1701;SDS011;848;48.354;10.064;2022-08-24T03:24:44;8.88;;;8.07;;
1701;SDS011;848;48.354;10.064;2022-08-24T03:27:10;9.60;;;8.60;;
1701;SDS011;848;48.354;10.064;2022-08-24T03:29:41;9.55;;;8.65;;
1701;SDS011;848;48.354;10.064;2022-08-24T03:32:08;10.07;;;8.90;;
1701;SDS011;848;48.354;10.064;2022-08-24T03:34:35;8.95;;;8.15;;
1701;SDS011;848;48.354;10.064;2022-08-24T03:37:02;9.25;;;8.32;;
1701;SDS011;848;48.354;10.064;2022-08-24T03:39:31;8.07;;;7.30;;
1701;SDS011;848;48.354;10.064;2022-08-24T03:41:58;9.75;;;8.57;;
1701;SDS011;848;48.354;10.064;2022-08-24T03:44:25;9.23;;;8.27;;
1701;SDS011;848;48.354;10.064;2022-08-24T03:46:52;9.30;;;8.50;;
1701;SDS011;848;48.354;10.064;2022-08-24T03:49:19;9.02;;;8.15;;
1701;SDS011;848;48.354;10.064;2022-08-24T03:51:46;9.30;;;8.40;;
1701;SDS011;848;48.354;10.064;2022-08-24T03:54:14;10.13;;;9.07;;
1701;SDS011;848;48.354;10.064;2022-08-24T03:56:44;10.05;;;9.05;;
1701;SDS011;848;48.354;10.064;2022-08-24T03:59:11;10.10;;;9.10;;
1701;SDS011;848;48.354;10.064;2022-08-24T04:01:38;10.68;;;9.68;;
1701;SDS011;848;48.354;10.064;2022-08-24T04:04:05;11.18;;;10.13;;
1701;SDS011;848;48.354;10.064;2022-08-24T04:06:32;10.95;;;9.90;;
1701;SDS011;848;48.354;10.064;2022-08-24T04:08:59;9.95;;;9.00;;
1701;SDS011;848;48.354;10.064;2022-08-24T04:11:27;10.15;;;9.25;;
1701;SDS011;848;48.354;10.064;2022-08-24T04:13:57;10.93;;;9.85;;
1701;SDS011;848;48.354;10.064;2022-08-24T04:16:24;10.20;;;9.20;;
1701;SDS011;848;48.354;10.064;2022-08-24T04:18:57;11.38;;;8.88;;
1701;SDS011;848;48.354;10.064;2022-08-24T04:21:24;11.25;;;10.15;;
1701;SDS011;848;48.354;10.064;2022-08-24T04:23:53;10.20;;;9.20;;
1701;SDS011;848;48.354;10.064;2022-08-24T04:26:22;10.38;;;9.15;;
1701;SDS011;848;48.354;10.064;2022-08-24T04:28:52;10.50;;;8.48;;
1701;SDS011;848;48.354;10.064;2022-08-24T04:31:20;8.70;;;7.90;;
1701;SDS011;848;48.354;10.064;2022-08-24T04:33:49;9.60;;;8.60;;
1701;SDS011;848;48.354;10.064;2022-08-24T04:36:17;9.60;;;8.80;;
1701;SDS011;848;48.354;10.064;2022-08-24T04:38:46;8.80;;;8.00;;
1701;SDS011;848;48.354;10.064;2022-08-24T04:41:14;8.13;;;7.32;;
1701;SDS011;848;48.354;10.064;2022-08-24T04:43:44;8.38;;;7.57;;
1701;SDS011;848;48.354;10.064;2022-08-24T04:46:12;8.52;;;6.90;;
1701;SDS011;848;48.354;10.064;2022-08-24T04:48:42;8.77;;;8.07;;
1701;SDS011;848;48.354;10.064;2022-08-24T04:51:11;9.00;;;8.20;;
1701;SDS011;848;48.354;10.064;2022-08-24T04:53:40;9.63;;;8.65;;
1701;SDS011;848;48.354;10.064;2022-08-24T04:56:09;11.20;;;9.10;;
1701;SDS011;848;48.354;10.064;2022-08-24T04:58:37;8.80;;;7.90;;
1701;SDS011;848;48.354;10.064;2022-08-24T05:01:06;9.80;;;8.82;;
1701;SDS011;848;48.354;10.064;2022-08-24T05:03:33;9.80;;;8.82;;
1701;SDS011;848;48.354;10.064;2022-08-24T05:06:02;9.63;;;8.73;;
1701;SDS011;848;48.354;10.064;2022-08-24T05:08:29;12.02;;;9.70;;
1701;SDS011;848;48.354;10.064;2022-08-24T05:10:57;8.43;;;7.63;;
1701;SDS011;848;48.354;10.064;2022-08-24T05:13:25;13.88;;;8.95;;
1701;SDS011;848;48.354;10.064;2022-08-24T05:15:52;8.80;;;8.00;;
1701;SDS011;848;48.354;10.064;2022-08-24T05:18:19;10.52;;;8.40;;
1701;SDS011;848;48.354;10.064;2022-08-24T05:20:46;9.20;;;8.30;;
1701;SDS011;848;48.354;10.064;2022-08-24T05:23:14;9.55;;;8.65;;
1701;SDS011;848;48.354;10.064;2022-08-24T05:25:43;8.70;;;7.90;;
1701;SDS011;848;48.354;10.064;2022-08-24T05:28:10;11.95;;;10.13;;
1701;SDS011;848;48.354;10.064;2022-08-24T05:30:40;9.90;;;9.02;;
1701;SDS011;848;48.354;10.064;2022-08-24T05:33:07;11.93;;;10.38;;
1701;SDS011;848;48.354;10.064;2022-08-24T05:35:35;13.73;;;10.65;;
1701;SDS011;848;48.354;10.064;2022-08-24T05:38:04;11.45;;;10.43;;
1701;SDS011;848;48.354;10.064;2022-08-24T05:40:33;12.27;;;10.38;;
1701;SDS011;848;48.354;10.064;2022-08-24T05:43:02;12.85;;;11.50;;
1701;SDS011;848;48.354;10.064;2022-08-24T05:45:29;17.23;;;11.23;;
1701;SDS011;848;48.354;10.064;2022-08-24T05:47:56;39.50;;;14.13;;
1701;SDS011;848;48.354;10.064;2022-08-24T05:50:23;20.05;;;11.15;;
1701;SDS011;848;48.354;10.064;2022-08-24T05:52:50;13.10;;;11.98;;
1701;SDS011;848;48.354;10.064;2022-08-24T05:55:17;15.85;;;12.40;;
1701;SDS011;848;48.354;10.064;2022-08-24T05:57:46;13.30;;;12.00;;
1701;SDS011;848;48.354;10.064;2022-08-24T06:00:14;14.80;;;13.43;;
1701;SDS011;848;48.354;10.064;2022-08-24T06:02:42;14.40;;;12.52;;
1701;SDS011;848;48.354;10.064;2022-08-24T06:05:11;15.05;;;13.13;;
1701;SDS011;848;48.354;10.064;2022-08-24T06:07:38;14.98;;;12.40;;
1701;SDS011;848;48.354;10.064;2022-08-24T06:10:05;16.10;;;13.18;;
1701;SDS011;848;48.354;10.064;2022-08-24T06:12:33;13.60;;;12.20;;
1701;SDS011;848;48.354;10.064;2022-08-24T06:15:02;14.25;;;12.85;;
1701;SDS011;848;48.354;10.064;2022-08-24T06:17:29;12.57;;;11.30;;
1701;SDS011;848;48.354;10.064;2022-08-24T06:19:56;14.32;;;11.27;;
1701;SDS011;848;48.354;10.064;2022-08-24T06:22:26;12.52;;;11.23;;
1701;SDS011;848;48.354;10.064;2022-08-24T06:24:53;11.00;;;9.90;;
1701;SDS011;848;48.354;10.064;2022-08-24T06:27:37;13.93;;;11.07;;
1701;SDS011;848;48.354;10.064;2022-08-24T06:30:08;12.57;;;11.38;;
1701;SDS011;848;48.354;10.064;2022-08-24T06:32:35;14.18;;;9.90;;
1701;SDS011;848;48.354;10.064;2022-08-24T06:35:03;12.18;;;10.45;;
1701;SDS011;848;48.354;10.064;2022-08-24T06:37:32;12.38;;;10.15;;
1701;SDS011;848;48.354;10.064;2022-08-24T06:39:58;10.90;;;9.02;;
1701;SDS011;848;48.354;10.064;2022-08-24T06:42:25;11.30;;;10.10;;
1701;SDS011;848;48.354;10.064;2022-08-24T06:44:53;12.85;;;10.60;;
1701;SDS011;848;48.354;10.064;2022-08-24T06:47:25;11.95;;;9.93;;
1701;SDS011;848;48.354;10.064;2022-08-24T06:49:52;11.63;;;10.52;;
1701;SDS011;848;48.354;10.064;2022-08-24T06:52:18;14.38;;;10.10;;
1701;SDS011;848;48.354;10.064;2022-08-24T06:54:48;13.48;;;9.35;;
1701;SDS011;848;48.354;10.064;2022-08-24T06:57:17;10.48;;;9.00;;
1701;SDS011;848;48.354;10.064;2022-08-24T06:59:44;11.95;;;10.75;;
1701;SDS011;848;48.354;10.064;2022-08-24T07:02:11;11.80;;;10.20;;
1701;SDS011;848;48.354;10.064;2022-08-24T07:04:41;13.18;;;9.80;;
1701;SDS011;848;48.354;10.064;2022-08-24T07:07:08;10.40;;;9.50;;
1701;SDS011;848;48.354;10.064;2022-08-24T07:09:35;12.75;;;10.85;;
1701;SDS011;848;48.354;10.064;2022-08-24T07:12:03;12.70;;;9.00;;
1701;SDS011;848;48.354;10.064;2022-08-24T07:14:30;10.88;;;9.75;;
1701;SDS011;848;48.354;10.064;2022-08-24T07:16:57;11.43;;;9.80;;
1701;SDS011;848;48.354;10.064;2022-08-24T07:19:24;10.38;;;9.38;;
1701;SDS011;848;48.354;10.064;2022-08-24T07:21:55;12.40;;;10.57;;
1701;SDS011;848;48.354;10.064;2022-08-24T07:24:22;11.85;;;9.90;;
1701;SDS011;848;48.354;10.064;2022-08-24T07:26:50;13.07;;;11.75;;
1701;SDS011;848;48.354;10.064;2022-08-24T07:29:17;12.43;;;10.40;;
1701;SDS011;848;48.354;10.064;2022-08-24T07:31:44;12.20;;;11.00;;
1701;SDS011;848;48.354;10.064;2022-08-24T07:34:12;13.93;;;12.48;;
1701;SDS011;848;48.354;10.064;2022-08-24T07:36:40;13.20;;;11.25;;
1701;SDS011;848;48.354;10.064;2022-08-24T07:39:08;17.73;;;12.13;;
1701;SDS011;848;48.354;10.064;2022-08-24T07:41:38;13.90;;;11.98;;
1701;SDS011;848;48.354;10.064;2022-08-24T07:44:09;12.95;;;11.43;;
1701;SDS011;848;48.354;10.064;2022-08-24T07:46:38;11.85;;;10.75;;
1701;SDS011;848;48.354;10.064;2022-08-24T07:49:05;14.35;;;12.95;;
1701;SDS011;848;48.354;10.064;2022-08-24T07:51:33;13.15;;;11.40;;
1701;SDS011;848;48.354;10.064;2022-08-24T07:54:01;12.60;;;10.70;;
1701;SDS011;848;48.354;10.064;2022-08-24T07:56:30;13.93;;;12.25;;
1701;SDS011;848;48.354;10.064;2022-08-24T07:58:57;11.23;;;10.13;;
1701;SDS011;848;48.354;10.064;2022-08-24T08:01:24;12.23;;;10.98;;
1701;SDS011;848;48.354;10.064;2022-08-24T08:03:51;12.50;;;10.60;;
1701;SDS011;848;48.354;10.064;2022-08-24T08:06:21;17.77;;;11.20;;
1701;SDS011;848;48.354;10.064;2022-08-24T08:08:48;12.25;;;11.05;;
1701;SDS011;848;48.354;10.064;2022-08-24T08:11:15;12.40;;;11.25;;
1701;SDS011;848;48.354;10.064;2022-08-24T08:13:44;12.30;;;10.70;;
1701;SDS011;848;48.354;10.064;2022-08-24T08:16:11;12.93;;;11.63;;
1701;SDS011;848;48.354;10.064;2022-08-24T08:18:39;11.95;;;10.80;;
1701;SDS011;848;48.354;10.064;2022-08-24T08:21:06;11.40;;;10.27;;
1701;SDS011;848;48.354;10.064;2022-08-24T08:23:54;12.65;;;11.38;;
1701;SDS011;848;48.354;10.064;2022-08-24T08:26:38;11.40;;;10.27;;
1701;SDS011;848;48.354;10.064;2022-08-24T08:29:07;11.23;;;10.07;;
1701;SDS011;848;48.354;10.064;2022-08-24T08:31:37;10.85;;;9.75;;
1701;SDS011;848;48.354;10.064;2022-08-24T08:34:04;11.93;;;10.82;;
1701;SDS011;848;48.354;10.064;2022-08-24T08:36:32;16.63;;;11.13;;
1701;SDS011;848;48.354;10.064;2022-08-24T08:39:00;11.77;;;10.52;;
1701;SDS011;848;48.354;10.064;2022-08-24T08:44:34;12.13;;;10.82;;
1701;SDS011;848;48.354;10.064;2022-08-24T08:47:14;12.07;;;10.98;;
1701;SDS011;848;48.354;10.064;2022-08-24T08:52:40;13.18;;;11.35;;
1701;SDS011;848;48.354;10.064;2022-08-24T08:55:30;13.32;;;10.90;;
1701;SDS011;848;48.354;10.064;2022-08-24T08:58:05;12.05;;;10.93;;
1701;SDS011;848;48.354;10.064;2022-08-24T09:00:49;10.65;;;9.65;;
1701;SDS011;848;48.354;10.064;2022-08-24T09:03:36;11.93;;;10.88;;
1701;SDS011;848;48.354;10.064;2022-08-24T09:06:19;12.30;;;11.05;;
1701;SDS011;848;48.354;10.064;2022-08-24T09:09:14;10.45;;;9.45;;
1701;SDS011;848;48.354;10.064;2022-08-24T09:11:53;11.27;;;9.80;;
1701;SDS011;848;48.354;10.064;2022-08-24T09:14:40;9.27;;;8.27;;
1701;SDS011;848;48.354;10.064;2022-08-24T09:17:27;11.07;;;10.07;;
1701;SDS011;848;48.354;10.064;2022-08-24T09:20:05;10.77;;;9.88;;
1701;SDS011;848;48.354;10.064;2022-08-24T09:22:41;11.23;;;10.13;;
1701;SDS011;848;48.354;10.064;2022-08-24T09:25:16;10.90;;;9.75;;
1701;SDS011;848;48.354;10.064;2022-08-24T09:27:51;10.77;;;9.88;;
1701;SDS011;848;48.354;10.064;2022-08-24T09:30:34;9.75;;;8.82;;
1701;SDS011;848;48.354;10.064;2022-08-24T09:33:26;11.07;;;10.05;;
1701;SDS011;848;48.354;10.064;2022-08-24T09:36:06;11.10;;;10.13;;
1701;SDS011;848;48.354;10.064;2022-08-24T09:38:55;9.93;;;9.05;;
1701;SDS011;848;48.354;10.064;2022-08-24T09:41:44;8.15;;;7.35;;
1701;SDS011;848;48.354;10.064;2022-08-24T09:44:50;10.60;;;8.10;;
1701;SDS011;848;48.354;10.064;2022-08-24T09:47:37;8.18;;;7.30;;
1701;SDS011;848;48.354;10.064;2022-08-24T09:50:30;8.75;;;7.85;;
1701;SDS011;848;48.354;10.064;2022-08-24T09:56:34;7.95;;;7.15;;
1701;SDS011;848;48.354;10.064;2022-08-24T09:59:19;8.70;;;7.45;;
1701;SDS011;848;48.354;10.064;2022-08-24T10:02:08;8.00;;;7.30;;
1701;SDS011;848;48.354;10.064;2022-08-24T10:04:55;8.75;;;7.85;;
1701;SDS011;848;48.354;10.064;2022-08-24T10:07:35;7.25;;;6.53;;
1701;SDS011;848;48.354;10.064;2022-08-24T10:10:10;6.47;;;5.65;;
1701;SDS011;848;48.354;10.064;2022-08-24T10:12:48;9.70;;;6.70;;
1701;SDS011;848;48.354;10.064;2022-08-24T10:15:26;7.65;;;6.20;;
1701;SDS011;848;48.354;10.064;2022-08-24T10:18:03;7.53;;;6.70;;
1701;SDS011;848;48.354;10.064;2022-08-24T10:21:02;6.00;;;5.50;;
1701;SDS011;848;48.354;10.064;2022-08-24T10:23:43;6.63;;;5.90;;
1701;SDS011;848;48.354;10.064;2022-08-24T10:26:33;7.85;;;7.10;;
1701;SDS011;848;48.354;10.064;2022-08-24T10:29:14;6.93;;;5.40;;
1701;SDS011;848;48.354;10.064;2022-08-24T10:31:56;5.60;;;5.10;;
1701;SDS011;848;48.354;10.064;2022-08-24T10:34:38;5.38;;;4.80;;
1701;SDS011;848;48.354;10.064;2022-08-24T10:40:42;4.00;;;3.60;;
1701;SDS011;848;48.354;10.064;2022-08-24T10:43:35;4.93;;;3.67;;
1701;SDS011;848;48.354;10.064;2022-08-24T10:49:20;6.32;;;3.80;;
1701;SDS011;848;48.354;10.064;2022-08-24T10:55:23;3.78;;;3.38;;
1701;SDS011;848;48.354;10.064;2022-08-24T10:58:05;5.47;;;3.60;;
1701;SDS011;848;48.354;10.064;2022-08-24T11:00:44;5.15;;;4.75;;
1701;SDS011;848;48.354;10.064;2022-08-24T11:03:12;6.03;;;5.40;;
1701;SDS011;848;48.354;10.064;2022-08-24T11:05:43;6.65;;;6.00;;
1701;SDS011;848;48.354;10.064;2022-08-24T11:08:17;6.22;;;5.47;;
1701;SDS011;848;48.354;10.064;2022-08-24T11:10:46;4.80;;;4.38;;
1701;SDS011;848;48.354;10.064;2022-08-24T11:13:32;6.43;;;5.80;;
1701;SDS011;848;48.354;10.064;2022-08-24T11:16:01;5.20;;;4.45;;
1701;SDS011;848;48.354;10.064;2022-08-24T11:18:44;7.13;;;5.20;;
1701;SDS011;848;48.354;10.064;2022-08-24T11:21:17;5.40;;;4.75;;
1701;SDS011;848;48.354;10.064;2022-08-24T11:23:59;5.25;;;4.15;;
1701;SDS011;848;48.354;10.064;2022-08-24T11:26:28;6.07;;;5.57;;
1701;SDS011;848;48.354;10.064;2022-08-24T11:29:00;8.52;;;5.80;;
1701;SDS011;848;48.354;10.064;2022-08-24T11:31:30;5.50;;;4.93;;
1701;SDS011;848;48.354;10.064;2022-08-24T11:34:03;6.43;;;5.43;;
1701;SDS011;848;48.354;10.064;2022-08-24T11:36:33;6.00;;;5.38;;
1701;SDS011;848;48.354;10.064;2022-08-24T11:39:11;7.40;;;6.10;;
1701;SDS011;848;48.354;10.064;2022-08-24T11:41:46;7.85;;;6.00;;
1701;SDS011;848;48.354;10.064;2022-08-24T11:44:24;6.25;;;5.40;;
1701;SDS011;848;48.354;10.064;2022-08-24T11:47:02;6.25;;;5.40;;
1701;SDS011;848;48.354;10.064;2022-08-24T11:49:38;5.95;;;5.30;;
1701;SDS011;848;48.354;10.064;2022-08-24T11:52:14;5.32;;;4.80;;
1701;SDS011;848;48.354;10.064;2022-08-24T11:54:50;4.65;;;4.18;;
1701;SDS011;848;48.354;10.064;2022-08-24T11:57:24;8.02;;;4.45;;
1701;SDS011;848;48.354;10.064;2022-08-24T12:00:04;4.15;;;3.75;;
1701;SDS011;848;48.354;10.064;2022-08-24T12:02:35;5.75;;;4.60;;
1701;SDS011;848;48.354;10.064;2022-08-24T12:05:09;4.80;;;4.40;;
1701;SDS011;848;48.354;10.064;2022-08-24T12:07:49;4.40;;;4.00;;
1701;SDS011;848;48.354;10.064;2022-08-24T12:10:26;4.47;;;4.00;;
1701;SDS011;848;48.354;10.064;2022-08-24T12:13:00;3.97;;;3.55;;
1701;SDS011;848;48.354;10.064;2022-08-24T12:15:36;6.83;;;4.47;;
1701;SDS011;848;48.354;10.064;2022-08-24T12:18:11;5.47;;;3.40;;
1701;SDS011;848;48.354;10.064;2022-08-24T12:20:49;6.38;;;4.15;;
1701;SDS011;848;48.354;10.064;2022-08-24T12:23:19;4.80;;;4.40;;
1701;SDS011;848;48.354;10.064;2022-08-24T12:25:54;5.65;;;4.20;;
1701;SDS011;848;48.354;10.064;2022-08-24T12:28:29;7.28;;;4.50;;
1701;SDS011;848;48.354;10.064;2022-08-24T12:31:05;5.15;;;4.53;;
1701;SDS011;848;48.354;10.064;2022-08-24T12:33:37;7.25;;;5.65;;
1701;SDS011;848;48.354;10.064;2022-08-24T12:36:11;4.72;;;4.13;;
1701;SDS011;848;48.354;10.064;2022-08-24T12:38:43;5.97;;;5.38;;
1701;SDS011;848;48.354;10.064;2022-08-24T12:41:16;7.78;;;5.90;;
1701;SDS011;848;48.354;10.064;2022-08-24T12:43:50;5.65;;;5.05;;
1701;SDS011;848;48.354;10.064;2022-08-24T12:46:22;5.00;;;4.60;;
1701;SDS011;848;48.354;10.064;2022-08-24T12:48:52;6.18;;;4.70;;
1701;SDS011;848;48.354;10.064;2022-08-24T12:51:24;4.90;;;4.40;;
1701;SDS011;848;48.354;10.064;2022-08-24T12:54:02;5.47;;;4.82;;
1701;SDS011;848;48.354;10.064;2022-08-24T12:56:45;5.50;;;5.00;;
1701;SDS011;848;48.354;10.064;2022-08-24T12:59:24;5.40;;;4.60;;
1701;SDS011;848;48.354;10.064;2022-08-24T13:01:59;5.80;;;5.10;;
1701;SDS011;848;48.354;10.064;2022-08-24T13:04:33;5.13;;;4.63;;
1701;SDS011;848;48.354;10.064;2022-08-24T13:07:06;7.30;;;5.20;;
1701;SDS011;848;48.354;10.064;2022-08-24T13:09:36;5.63;;;4.70;;
1701;SDS011;848;48.354;10.064;2022-08-24T13:15:22;5.20;;;4.40;;
1701;SDS011;848;48.354;10.064;2022-08-24T13:21:15;6.95;;;5.50;;
1701;SDS011;848;48.354;10.064;2022-08-24T13:30:48;5.10;;;4.60;;
1701;SDS011;848;48.354;10.064;2022-08-24T13:33:49;5.40;;;4.90;;
1701;SDS011;848;48.354;10.064;2022-08-24T13:42:28;6.17;;;4.70;;
1701;SDS011;848;48.354;10.064;2022-08-24T13:45:17;5.10;;;4.60;;
1701;SDS011;848;48.354;10.064;2022-08-24T13:47:55;5.72;;;3.70;;
1701;SDS011;848;48.354;10.064;2022-08-24T13:50:31;5.30;;;3.97;;
1701;SDS011;848;48.354;10.064;2022-08-24T13:53:12;5.07;;;4.13;;
1701;SDS011;848;48.354;10.064;2022-08-24T13:56:11;4.57;;;4.00;;
1701;SDS011;848;48.354;10.064;2022-08-24T13:58:51;4.13;;;3.70;;
1701;SDS011;848;48.354;10.064;2022-08-24T14:01:27;4.37;;;3.90;;
1701;SDS011;848;48.354;10.064;2022-08-24T14:04:04;5.03;;;3.57;;
1701;SDS011;848;48.354;10.064;2022-08-24T14:06:45;4.17;;;3.53;;
1701;SDS011;848;48.354;10.064;2022-08-24T14:09:24;4.03;;;3.30;;
1701;SDS011;848;48.354;10.064;2022-08-24T14:12:10;6.40;;;3.60;;
1701;SDS011;848;48.354;10.064;2022-08-24T14:14:53;5.20;;;3.83;;
1701;SDS011;848;48.354;10.064;2022-08-24T14:17:29;4.17;;;3.63;;
1701;SDS011;848;48.354;10.064;2022-08-24T14:23:31;3.83;;;3.43;;
1701;SDS011;848;48.354;10.064;2022-08-24T14:29:32;4.60;;;2.90;;
1701;SDS011;848;48.354;10.064;2022-08-24T14:35:09;4.83;;;3.50;;
1701;SDS011;848;48.354;10.064;2022-08-24T14:37:51;3.57;;;3.10;;
1701;SDS011;848;48.354;10.064;2022-08-24T14:40:30;3.30;;;2.93;;
1701;SDS011;848;48.354;10.064;2022-08-24T14:43:00;4.03;;;3.27;;
1701;SDS011;848;48.354;10.064;2022-08-24T14:45:45;4.33;;;2.77;;
1701;SDS011;848;48.354;10.064;2022-08-24T14:48:21;3.83;;;3.43;;
1701;SDS011;848;48.354;10.064;2022-08-24T14:50:58;3.10;;;2.80;;
1701;SDS011;848;48.354;10.064;2022-08-24T14:53:49;2.73;;;2.40;;
1701;SDS011;848;48.354;10.064;2022-08-24T14:56:27;3.13;;;2.57;;
1701;SDS011;848;48.354;10.064;2022-08-24T14:59:10;4.20;;;2.80;;
1701;SDS011;848;48.354;10.064;2022-08-24T15:01:46;7.03;;;3.43;;
1701;SDS011;848;48.354;10.064;2022-08-24T15:04:20;5.13;;;3.13;;
1701;SDS011;848;48.354;10.064;2022-08-24T15:06:58;2.93;;;2.63;;
1701;SDS011;848;48.354;10.064;2022-08-24T15:09:44;3.10;;;2.53;;
1701;SDS011;848;48.354;10.064;2022-08-24T15:12:19;3.63;;;2.57;;
1701;SDS011;848;48.354;10.064;2022-08-24T15:15:10;3.63;;;2.85;;
1701;SDS011;848;48.354;10.064;2022-08-24T15:17:52;3.80;;;2.80;;
1701;SDS011;848;48.354;10.064;2022-08-24T15:20:30;3.10;;;2.80;;
1701;SDS011;848;48.354;10.064;2022-08-24T15:23:20;4.30;;;3.30;;
1701;SDS011;848;48.354;10.064;2022-08-24T15:25:53;3.80;;;3.40;;
1701;SDS011;848;48.354;10.064;2022-08-24T15:28:26;5.95;;;3.03;;
1701;SDS011;848;48.354;10.064;2022-08-24T15:30:56;2.93;;;2.27;;
1701;SDS011;848;48.354;10.064;2022-08-24T15:33:26;4.40;;;3.10;;
1701;SDS011;848;48.354;10.064;2022-08-24T15:36:05;2.73;;;2.30;;
1701;SDS011;848;48.354;10.064;2022-08-24T15:38:35;4.32;;;2.63;;
1701;SDS011;848;48.354;10.064;2022-08-24T15:41:04;3.70;;;2.93;;
1701;SDS011;848;48.354;10.064;2022-08-24T15:43:39;6.60;;;2.73;;
1701;SDS011;848;48.354;10.064;2022-08-24T15:46:09;2.80;;;2.60;;
1701;SDS011;848;48.354;10.064;2022-08-24T15:48:39;3.33;;;2.60;;
1701;SDS011;848;48.354;10.064;2022-08-24T15:51:07;2.90;;;2.57;;
1701;SDS011;848;48.354;10.064;2022-08-24T15:53:39;3.63;;;3.33;;
1701;SDS011;848;48.354;10.064;2022-08-24T15:59:08;3.43;;;2.80;;
1701;SDS011;848;48.354;10.064;2022-08-24T16:01:37;3.67;;;2.20;;
1701;SDS011;848;48.354;10.064;2022-08-24T16:04:35;3.23;;;2.80;;
1701;SDS011;848;48.354;10.064;2022-08-24T16:07:05;4.93;;;3.13;;
1701;SDS011;848;48.354;10.064;2022-08-24T16:09:35;4.40;;;2.95;;
1701;SDS011;848;48.354;10.064;2022-08-24T16:12:04;3.40;;;3.10;;
1701;SDS011;848;48.354;10.064;2022-08-24T16:14:37;3.27;;;2.97;;
1701;SDS011;848;48.354;10.064;2022-08-24T16:17:19;3.33;;;2.77;;
1701;SDS011;848;48.354;10.064;2022-08-24T16:19:52;2.92;;;2.55;;
1701;SDS011;848;48.354;10.064;2022-08-24T16:22:26;3.90;;;3.13;;
1701;SDS011;848;48.354;10.064;2022-08-24T16:25:07;2.80;;;2.50;;
1701;SDS011;848;48.354;10.064;2022-08-24T16:27:55;4.17;;;2.70;;
1701;SDS011;848;48.354;10.064;2022-08-24T16:30:36;3.13;;;2.83;;
1701;SDS011;848;48.354;10.064;2022-08-24T16:33:10;2.78;;;2.55;;